sensor_id;sensor_type;location;lat;lon;timestamp;P1;durP1;ratioP1;P2;durP2;ratioP2
12145;SDS011;6136;47.032;15.398;2023-05-07T00:02:05;7.33;;;5.80;;
12145;SDS011;6136;47.032;15.398;2023-05-07T00:04:34;6.20;;;5.60;;
12145;SDS011;6136;47.032;15.398;2023-05-07T00:07:04;6.03;;;5.40;;
12145;SDS011;6136;47.032;15.398;2023-05-07T00:09:34;6.67;;;5.87;;
12145;SDS011;6136;47.032;15.398;2023-05-07T00:12:02;7.77;;;6.30;;
12145;SDS011;6136;47.032;15.398;2023-05-07T00:14:30;6.30;;;5.53;;
12145;SDS011;6136;47.032;15.398;2023-05-07T00:16:58;7.80;;;5.83;;
12145;SDS011;6136;47.032;15.398;2023-05-07T00:19:27;8.67;;;6.50;;
12145;SDS011;6136;47.032;15.398;2023-05-07T00:21:55;7.03;;;5.83;;
12145;SDS011;6136;47.032;15.398;2023-05-07T00:24:23;6.90;;;6.07;;
12145;SDS011;6136;47.032;15.398;2023-05-07T00:26:53;6.73;;;5.60;;
12145;SDS011;6136;47.032;15.398;2023-05-07T00:29:21;7.17;;;5.30;;
12145;SDS011;6136;47.032;15.398;2023-05-07T00:31:49;7.80;;;5.60;;
12145;SDS011;6136;47.032;15.398;2023-05-07T00:34:17;8.77;;;6.37;;
12145;SDS011;6136;47.032;15.398;2023-05-07T00:36:46;6.23;;;5.63;;
12145;SDS011;6136;47.032;15.398;2023-05-07T00:39:14;6.40;;;5.80;;
12145;SDS011;6136;47.032;15.398;2023-05-07T00:41:42;5.93;;;5.30;;
12145;SDS011;6136;47.032;15.398;2023-05-07T00:44:12;6.33;;;5.40;;
12145;SDS011;6136;47.032;15.398;2023-05-07T00:46:40;6.10;;;5.40;;
12145;SDS011;6136;47.032;15.398;2023-05-07T00:49:09;5.60;;;5.10;;
12145;SDS011;6136;47.032;15.398;2023-05-07T00:51:38;5.73;;;5.10;;
12145;SDS011;6136;47.032;15.398;2023-05-07T00:54:06;6.13;;;4.90;;
12145;SDS011;6136;47.032;15.398;2023-05-07T00:56:35;5.60;;;4.93;;
12145;SDS011;6136;47.032;15.398;2023-05-07T00:59:05;5.53;;;4.63;;
12145;SDS011;6136;47.032;15.398;2023-05-07T01:01:35;5.70;;;5.03;;
12145;SDS011;6136;47.032;15.398;2023-05-07T01:04:04;5.23;;;4.70;;
12145;SDS011;6136;47.032;15.398;2023-05-07T01:06:32;7.80;;;4.83;;
12145;SDS011;6136;47.032;15.398;2023-05-07T01:09:01;5.20;;;4.70;;
12145;SDS011;6136;47.032;15.398;2023-05-07T01:11:31;9.33;;;4.70;;
12145;SDS011;6136;47.032;15.398;2023-05-07T01:13:59;5.93;;;4.90;;
12145;SDS011;6136;47.032;15.398;2023-05-07T01:16:28;4.73;;;4.23;;
12145;SDS011;6136;47.032;15.398;2023-05-07T01:18:57;4.03;;;3.63;;
12145;SDS011;6136;47.032;15.398;2023-05-07T01:21:26;4.07;;;3.67;;
12145;SDS011;6136;47.032;15.398;2023-05-07T01:23:58;5.13;;;3.90;;
12145;SDS011;6136;47.032;15.398;2023-05-07T01:26:28;4.10;;;3.57;;
12145;SDS011;6136;47.032;15.398;2023-05-07T01:28:56;5.10;;;4.30;;
12145;SDS011;6136;47.032;15.398;2023-05-07T01:31:24;4.87;;;4.37;;
12145;SDS011;6136;47.032;15.398;2023-05-07T01:33:53;7.53;;;4.43;;
12145;SDS011;6136;47.032;15.398;2023-05-07T01:36:22;4.83;;;4.30;;
12145;SDS011;6136;47.032;15.398;2023-05-07T01:38:52;5.93;;;3.90;;
12145;SDS011;6136;47.032;15.398;2023-05-07T01:41:22;4.07;;;3.70;;
12145;SDS011;6136;47.032;15.398;2023-05-07T01:43:51;4.23;;;3.83;;
12145;SDS011;6136;47.032;15.398;2023-05-07T01:46:20;5.43;;;4.27;;
12145;SDS011;6136;47.032;15.398;2023-05-07T01:48:48;4.37;;;4.00;;
12145;SDS011;6136;47.032;15.398;2023-05-07T01:51:19;4.67;;;4.03;;
12145;SDS011;6136;47.032;15.398;2023-05-07T01:53:48;5.97;;;3.60;;
12145;SDS011;6136;47.032;15.398;2023-05-07T01:56:18;6.60;;;3.63;;
12145;SDS011;6136;47.032;15.398;2023-05-07T01:58:49;4.90;;;4.40;;
12145;SDS011;6136;47.032;15.398;2023-05-07T02:01:18;4.97;;;4.23;;
12145;SDS011;6136;47.032;15.398;2023-05-07T02:03:48;3.97;;;3.60;;
12145;SDS011;6136;47.032;15.398;2023-05-07T02:06:22;4.67;;;3.77;;
12145;SDS011;6136;47.032;15.398;2023-05-07T02:08:54;3.73;;;3.43;;
12145;SDS011;6136;47.032;15.398;2023-05-07T02:11:22;4.33;;;3.60;;
12145;SDS011;6136;47.032;15.398;2023-05-07T02:13:53;4.53;;;4.13;;
12145;SDS011;6136;47.032;15.398;2023-05-07T02:16:21;4.17;;;3.77;;
12145;SDS011;6136;47.032;15.398;2023-05-07T02:18:51;3.90;;;3.60;;
12145;SDS011;6136;47.032;15.398;2023-05-07T02:21:19;3.87;;;3.13;;
12145;SDS011;6136;47.032;15.398;2023-05-07T02:23:47;3.63;;;3.33;;
12145;SDS011;6136;47.032;15.398;2023-05-07T02:26:15;4.70;;;4.10;;
12145;SDS011;6136;47.032;15.398;2023-05-07T02:28:43;6.43;;;3.53;;
12145;SDS011;6136;47.032;15.398;2023-05-07T02:31:13;4.07;;;3.67;;
12145;SDS011;6136;47.032;15.398;2023-05-07T02:33:41;3.87;;;3.47;;
12145;SDS011;6136;47.032;15.398;2023-05-07T02:36:10;3.50;;;3.20;;
12145;SDS011;6136;47.032;15.398;2023-05-07T02:39:05;4.27;;;3.77;;
12145;SDS011;6136;47.032;15.398;2023-05-07T02:41:33;3.90;;;3.50;;
12145;SDS011;6136;47.032;15.398;2023-05-07T02:44:01;4.17;;;3.77;;
12145;SDS011;6136;47.032;15.398;2023-05-07T02:46:31;5.90;;;3.63;;
12145;SDS011;6136;47.032;15.398;2023-05-07T02:49:04;4.57;;;3.80;;
12145;SDS011;6136;47.032;15.398;2023-05-07T02:51:32;3.20;;;2.90;;
12145;SDS011;6136;47.032;15.398;2023-05-07T02:54:03;3.60;;;3.00;;
12145;SDS011;6136;47.032;15.398;2023-05-07T02:56:31;4.03;;;3.27;;
12145;SDS011;6136;47.032;15.398;2023-05-07T02:59:00;2.90;;;2.60;;
12145;SDS011;6136;47.032;15.398;2023-05-07T03:01:33;4.80;;;2.90;;
12145;SDS011;6136;47.032;15.398;2023-05-07T03:04:04;3.27;;;2.97;;
12145;SDS011;6136;47.032;15.398;2023-05-07T03:06:33;3.90;;;3.27;;
12145;SDS011;6136;47.032;15.398;2023-05-07T03:09:01;3.37;;;3.07;;
12145;SDS011;6136;47.032;15.398;2023-05-07T03:11:29;3.30;;;2.87;;
12145;SDS011;6136;47.032;15.398;2023-05-07T03:13:58;4.30;;;3.20;;
12145;SDS011;6136;47.032;15.398;2023-05-07T03:16:27;5.37;;;3.17;;
12145;SDS011;6136;47.032;15.398;2023-05-07T03:18:56;3.43;;;3.13;;
12145;SDS011;6136;47.032;15.398;2023-05-07T03:21:24;4.43;;;3.27;;
12145;SDS011;6136;47.032;15.398;2023-05-07T03:23:53;3.80;;;3.20;;
12145;SDS011;6136;47.032;15.398;2023-05-07T03:26:21;3.80;;;3.40;;
12145;SDS011;6136;47.032;15.398;2023-05-07T03:28:49;4.93;;;3.47;;
12145;SDS011;6136;47.032;15.398;2023-05-07T03:31:17;3.70;;;3.40;;
12145;SDS011;6136;47.032;15.398;2023-05-07T03:33:49;4.13;;;3.47;;
12145;SDS011;6136;47.032;15.398;2023-05-07T03:36:20;4.33;;;3.30;;
12145;SDS011;6136;47.032;15.398;2023-05-07T03:38:49;4.53;;;3.73;;
12145;SDS011;6136;47.032;15.398;2023-05-07T03:41:21;4.37;;;3.20;;
12145;SDS011;6136;47.032;15.398;2023-05-07T03:43:49;3.40;;;3.10;;
12145;SDS011;6136;47.032;15.398;2023-05-07T03:46:17;3.53;;;3.23;;
12145;SDS011;6136;47.032;15.398;2023-05-07T03:48:46;4.20;;;3.23;;
12145;SDS011;6136;47.032;15.398;2023-05-07T03:51:15;3.60;;;3.30;;
12145;SDS011;6136;47.032;15.398;2023-05-07T03:53:44;3.77;;;3.47;;
12145;SDS011;6136;47.032;15.398;2023-05-07T03:56:12;5.90;;;3.57;;
12145;SDS011;6136;47.032;15.398;2023-05-07T03:58:43;3.50;;;3.20;;
12145;SDS011;6136;47.032;15.398;2023-05-07T04:01:11;5.83;;;3.83;;
12145;SDS011;6136;47.032;15.398;2023-05-07T04:03:39;3.87;;;3.40;;
12145;SDS011;6136;47.032;15.398;2023-05-07T04:06:07;4.33;;;3.93;;
12145;SDS011;6136;47.032;15.398;2023-05-07T04:08:36;5.17;;;4.07;;
12145;SDS011;6136;47.032;15.398;2023-05-07T04:11:06;6.07;;;4.07;;
12145;SDS011;6136;47.032;15.398;2023-05-07T04:13:36;3.93;;;3.63;;
12145;SDS011;6136;47.032;15.398;2023-05-07T04:16:07;4.53;;;4.10;;
12145;SDS011;6136;47.032;15.398;2023-05-07T04:18:37;4.67;;;4.10;;
12145;SDS011;6136;47.032;15.398;2023-05-07T04:21:05;3.70;;;3.40;;
12145;SDS011;6136;47.032;15.398;2023-05-07T04:23:37;4.43;;;3.97;;
12145;SDS011;6136;47.032;15.398;2023-05-07T04:26:10;4.23;;;3.63;;
12145;SDS011;6136;47.032;15.398;2023-05-07T04:28:41;4.93;;;4.20;;
12145;SDS011;6136;47.032;15.398;2023-05-07T04:31:10;4.07;;;3.77;;
12145;SDS011;6136;47.032;15.398;2023-05-07T04:33:39;4.03;;;3.67;;
12145;SDS011;6136;47.032;15.398;2023-05-07T04:36:11;3.77;;;3.47;;
12145;SDS011;6136;47.032;15.398;2023-05-07T04:38:46;5.20;;;3.70;;
12145;SDS011;6136;47.032;15.398;2023-05-07T04:41:17;7.90;;;4.13;;
12145;SDS011;6136;47.032;15.398;2023-05-07T04:43:45;4.33;;;3.93;;
12145;SDS011;6136;47.032;15.398;2023-05-07T04:46:15;4.13;;;3.80;;
12145;SDS011;6136;47.032;15.398;2023-05-07T04:48:43;4.47;;;4.07;;
12145;SDS011;6136;47.032;15.398;2023-05-07T04:51:12;5.87;;;4.30;;
12145;SDS011;6136;47.032;15.398;2023-05-07T04:53:40;4.60;;;4.03;;
12145;SDS011;6136;47.032;15.398;2023-05-07T04:56:10;4.70;;;3.80;;
12145;SDS011;6136;47.032;15.398;2023-05-07T04:58:42;4.67;;;4.27;;
12145;SDS011;6136;47.032;15.398;2023-05-07T05:01:11;5.33;;;4.07;;
12145;SDS011;6136;47.032;15.398;2023-05-07T05:03:39;4.97;;;4.33;;
12145;SDS011;6136;47.032;15.398;2023-05-07T05:06:08;5.50;;;5.00;;
12145;SDS011;6136;47.032;15.398;2023-05-07T05:08:36;5.50;;;5.00;;
12145;SDS011;6136;47.032;15.398;2023-05-07T05:11:04;4.73;;;4.33;;
12145;SDS011;6136;47.032;15.398;2023-05-07T05:13:34;8.67;;;5.60;;
12145;SDS011;6136;47.032;15.398;2023-05-07T05:16:17;5.63;;;4.97;;
12145;SDS011;6136;47.032;15.398;2023-05-07T05:18:46;6.30;;;5.43;;
12145;SDS011;6136;47.032;15.398;2023-05-07T05:21:17;7.40;;;5.40;;
12145;SDS011;6136;47.032;15.398;2023-05-07T05:23:48;6.67;;;5.57;;
12145;SDS011;6136;47.032;15.398;2023-05-07T05:26:19;7.03;;;4.97;;
12145;SDS011;6136;47.032;15.398;2023-05-07T05:28:48;7.43;;;5.80;;
12145;SDS011;6136;47.032;15.398;2023-05-07T05:31:21;7.40;;;5.57;;
12145;SDS011;6136;47.032;15.398;2023-05-07T05:33:50;7.80;;;5.90;;
12145;SDS011;6136;47.032;15.398;2023-05-07T05:36:18;10.73;;;5.50;;
12145;SDS011;6136;47.032;15.398;2023-05-07T05:38:48;6.80;;;5.67;;
12145;SDS011;6136;47.032;15.398;2023-05-07T05:41:16;12.63;;;6.03;;
12145;SDS011;6136;47.032;15.398;2023-05-07T05:43:45;6.97;;;5.47;;
12145;SDS011;6136;47.032;15.398;2023-05-07T05:46:13;5.73;;;5.13;;
12145;SDS011;6136;47.032;15.398;2023-05-07T05:48:42;5.77;;;4.90;;
12145;SDS011;6136;47.032;15.398;2023-05-07T05:51:11;7.07;;;5.80;;
12145;SDS011;6136;47.032;15.398;2023-05-07T05:53:39;4.93;;;4.30;;
12145;SDS011;6136;47.032;15.398;2023-05-07T05:56:07;6.63;;;5.80;;
12145;SDS011;6136;47.032;15.398;2023-05-07T05:58:37;8.10;;;5.50;;
12145;SDS011;6136;47.032;15.398;2023-05-07T06:01:07;7.30;;;5.67;;
12145;SDS011;6136;47.032;15.398;2023-05-07T06:03:36;6.37;;;5.70;;
12145;SDS011;6136;47.032;15.398;2023-05-07T06:06:11;8.23;;;5.97;;
12145;SDS011;6136;47.032;15.398;2023-05-07T06:08:42;6.33;;;5.13;;
12145;SDS011;6136;47.032;15.398;2023-05-07T06:11:13;5.93;;;4.93;;
12145;SDS011;6136;47.032;15.398;2023-05-07T06:13:44;5.57;;;4.80;;
12145;SDS011;6136;47.032;15.398;2023-05-07T06:16:12;10.73;;;5.07;;
12145;SDS011;6136;47.032;15.398;2023-05-07T06:18:40;5.57;;;4.80;;
12145;SDS011;6136;47.032;15.398;2023-05-07T06:21:09;5.60;;;4.87;;
12145;SDS011;6136;47.032;15.398;2023-05-07T06:23:39;6.00;;;4.67;;
12145;SDS011;6136;47.032;15.398;2023-05-07T06:26:07;4.33;;;3.77;;
12145;SDS011;6136;47.032;15.398;2023-05-07T06:28:40;4.77;;;3.30;;
12145;SDS011;6136;47.032;15.398;2023-05-07T06:31:11;3.07;;;2.83;;
12145;SDS011;6136;47.032;15.398;2023-05-07T06:33:44;2.80;;;2.60;;
12145;SDS011;6136;47.032;15.398;2023-05-07T06:36:13;3.00;;;2.60;;
12145;SDS011;6136;47.032;15.398;2023-05-07T06:38:44;2.50;;;2.30;;
12145;SDS011;6136;47.032;15.398;2023-05-07T06:41:12;2.80;;;2.60;;
12145;SDS011;6136;47.032;15.398;2023-05-07T06:43:41;3.00;;;2.70;;
12145;SDS011;6136;47.032;15.398;2023-05-07T06:46:29;3.38;;;3.08;;
12145;SDS011;6136;47.032;15.398;2023-05-07T06:48:57;5.53;;;2.92;;
12145;SDS011;6136;47.032;15.398;2023-05-07T06:51:26;2.45;;;2.25;;
12145;SDS011;6136;47.032;15.398;2023-05-07T06:53:58;2.90;;;2.70;;
12145;SDS011;6136;47.032;15.398;2023-05-07T06:56:26;2.90;;;2.70;;
12145;SDS011;6136;47.032;15.398;2023-05-07T06:58:55;2.58;;;2.38;;
12145;SDS011;6136;47.032;15.398;2023-05-07T07:01:23;13.15;;;2.90;;
12145;SDS011;6136;47.032;15.398;2023-05-07T07:03:51;3.50;;;2.35;;
12145;SDS011;6136;47.032;15.398;2023-05-07T07:06:21;4.82;;;2.88;;
12145;SDS011;6136;47.032;15.398;2023-05-07T07:08:49;2.70;;;2.50;;
12145;SDS011;6136;47.032;15.398;2023-05-07T07:11:19;2.90;;;2.70;;
12145;SDS011;6136;47.032;15.398;2023-05-07T07:13:47;2.80;;;2.60;;
12145;SDS011;6136;47.032;15.398;2023-05-07T07:16:15;3.10;;;2.80;;
12145;SDS011;6136;47.032;15.398;2023-05-07T07:18:45;3.10;;;2.80;;
12145;SDS011;6136;47.032;15.398;2023-05-07T07:21:13;4.10;;;2.67;;
12145;SDS011;6136;47.032;15.398;2023-05-07T07:23:41;2.33;;;2.20;;
12145;SDS011;6136;47.032;15.398;2023-05-07T07:26:10;3.03;;;2.72;;
12145;SDS011;6136;47.032;15.398;2023-05-07T07:28:43;2.63;;;2.42;;
12145;SDS011;6136;47.032;15.398;2023-05-07T07:31:15;2.85;;;2.65;;
12145;SDS011;6136;47.032;15.398;2023-05-07T07:33:44;2.65;;;2.45;;
12145;SDS011;6136;47.032;15.398;2023-05-07T07:36:12;3.08;;;2.88;;
12145;SDS011;6136;47.032;15.398;2023-05-07T07:38:40;3.03;;;2.70;;
12145;SDS011;6136;47.032;15.398;2023-05-07T07:41:08;2.92;;;2.70;;
12145;SDS011;6136;47.032;15.398;2023-05-07T07:43:36;5.70;;;3.30;;
12145;SDS011;6136;47.032;15.398;2023-05-07T07:46:06;4.32;;;3.10;;
12145;SDS011;6136;47.032;15.398;2023-05-07T07:48:35;3.60;;;3.30;;
12145;SDS011;6136;47.032;15.398;2023-05-07T07:51:03;3.50;;;3.20;;
12145;SDS011;6136;47.032;15.398;2023-05-07T07:53:31;3.33;;;3.03;;
12145;SDS011;6136;47.032;15.398;2023-05-07T07:56:00;2.72;;;2.53;;
12145;SDS011;6136;47.032;15.398;2023-05-07T07:58:33;3.40;;;3.03;;
12145;SDS011;6136;47.032;15.398;2023-05-07T08:01:02;3.28;;;3.00;;
12145;SDS011;6136;47.032;15.398;2023-05-07T08:03:32;4.07;;;3.00;;
12145;SDS011;6136;47.032;15.398;2023-05-07T08:06:02;4.30;;;2.78;;
12145;SDS011;6136;47.032;15.398;2023-05-07T08:08:32;3.53;;;3.22;;
12145;SDS011;6136;47.032;15.398;2023-05-07T08:11:00;4.45;;;3.00;;
12145;SDS011;6136;47.032;15.398;2023-05-07T08:13:31;3.38;;;3.08;;
12145;SDS011;6136;47.032;15.398;2023-05-07T08:15:59;3.53;;;3.22;;
12145;SDS011;6136;47.032;15.398;2023-05-07T08:18:28;3.45;;;3.15;;
12145;SDS011;6136;47.032;15.398;2023-05-07T08:21:01;3.13;;;2.92;;
12145;SDS011;6136;47.032;15.398;2023-05-07T08:23:30;3.33;;;3.03;;
12145;SDS011;6136;47.032;15.398;2023-05-07T08:25:59;3.72;;;3.33;;
12145;SDS011;6136;47.032;15.398;2023-05-07T08:28:28;3.10;;;2.88;;
12145;SDS011;6136;47.032;15.398;2023-05-07T08:30:56;3.45;;;3.00;;
12145;SDS011;6136;47.032;15.398;2023-05-07T08:33:30;3.03;;;2.70;;
12145;SDS011;6136;47.032;15.398;2023-05-07T08:35:58;3.58;;;3.10;;
12145;SDS011;6136;47.032;15.398;2023-05-07T08:38:28;3.20;;;3.00;;
12145;SDS011;6136;47.032;15.398;2023-05-07T08:40:56;3.30;;;3.00;;
12145;SDS011;6136;47.032;15.398;2023-05-07T08:43:26;3.60;;;3.10;;
12145;SDS011;6136;47.032;15.398;2023-05-07T08:45:54;3.05;;;2.83;;
12145;SDS011;6136;47.032;15.398;2023-05-07T08:48:31;3.80;;;3.50;;
12145;SDS011;6136;47.032;15.398;2023-05-07T08:51:06;3.08;;;2.80;;
12145;SDS011;6136;47.032;15.398;2023-05-07T08:53:36;4.72;;;3.00;;
12145;SDS011;6136;47.032;15.398;2023-05-07T08:56:10;3.33;;;2.85;;
12145;SDS011;6136;47.032;15.398;2023-05-07T08:58:40;3.10;;;2.83;;
12145;SDS011;6136;47.032;15.398;2023-05-07T09:01:08;3.75;;;3.25;;
12145;SDS011;6136;47.032;15.398;2023-05-07T09:03:38;3.22;;;2.97;;
12145;SDS011;6136;47.032;15.398;2023-05-07T09:06:07;6.55;;;3.33;;
12145;SDS011;6136;47.032;15.398;2023-05-07T09:08:37;3.35;;;3.10;;
12145;SDS011;6136;47.032;15.398;2023-05-07T09:11:06;3.80;;;3.50;;
12145;SDS011;6136;47.032;15.398;2023-05-07T09:13:35;3.42;;;3.13;;
12145;SDS011;6136;47.032;15.398;2023-05-07T09:16:12;3.50;;;3.20;;
12145;SDS011;6136;47.032;15.398;2023-05-07T09:18:44;3.72;;;3.40;;
12145;SDS011;6136;47.032;15.398;2023-05-07T09:21:14;3.53;;;3.22;;
12145;SDS011;6136;47.032;15.398;2023-05-07T09:23:46;3.05;;;2.85;;
12145;SDS011;6136;47.032;15.398;2023-05-07T09:26:15;3.17;;;2.88;;
12145;SDS011;6136;47.032;15.398;2023-05-07T09:28:44;2.97;;;2.78;;
12145;SDS011;6136;47.032;15.398;2023-05-07T09:31:13;3.00;;;2.80;;
12145;SDS011;6136;47.032;15.398;2023-05-07T09:33:45;3.10;;;2.85;;
12145;SDS011;6136;47.032;15.398;2023-05-07T09:36:13;3.20;;;3.00;;
12145;SDS011;6136;47.032;15.398;2023-05-07T09:38:41;10.65;;;3.20;;
12145;SDS011;6136;47.032;15.398;2023-05-07T09:41:11;3.83;;;3.38;;
12145;SDS011;6136;47.032;15.398;2023-05-07T09:43:54;2.75;;;2.55;;
12145;SDS011;6136;47.032;15.398;2023-05-07T09:46:29;4.10;;;3.10;;
12145;SDS011;6136;47.032;15.398;2023-05-07T09:49:02;3.17;;;2.67;;
12145;SDS011;6136;47.032;15.398;2023-05-07T09:51:39;3.55;;;3.28;;
12145;SDS011;6136;47.032;15.398;2023-05-07T09:54:10;2.63;;;2.53;;
12145;SDS011;6136;47.032;15.398;2023-05-07T09:56:46;2.88;;;2.67;;
12145;SDS011;6136;47.032;15.398;2023-05-07T09:59:18;2.55;;;2.45;;
12145;SDS011;6136;47.032;15.398;2023-05-07T10:01:49;2.78;;;2.58;;
12145;SDS011;6136;47.032;15.398;2023-05-07T10:04:20;2.85;;;2.60;;
12145;SDS011;6136;47.032;15.398;2023-05-07T10:06:50;3.05;;;2.75;;
12145;SDS011;6136;47.032;15.398;2023-05-07T10:09:19;2.97;;;2.78;;
12145;SDS011;6136;47.032;15.398;2023-05-07T10:11:49;3.88;;;2.50;;
12145;SDS011;6136;47.032;15.398;2023-05-07T10:14:20;2.67;;;2.47;;
12145;SDS011;6136;47.032;15.398;2023-05-07T10:16:49;2.50;;;2.40;;
12145;SDS011;6136;47.032;15.398;2023-05-07T10:19:21;2.90;;;2.35;;
12145;SDS011;6136;47.032;15.398;2023-05-07T10:21:54;2.83;;;2.55;;
12145;SDS011;6136;47.032;15.398;2023-05-07T10:24:26;2.92;;;2.72;;
12145;SDS011;6136;47.032;15.398;2023-05-07T10:26:59;3.10;;;2.80;;
12145;SDS011;6136;47.032;15.398;2023-05-07T10:29:31;2.70;;;2.50;;
12145;SDS011;6136;47.032;15.398;2023-05-07T10:32:14;3.10;;;2.90;;
12145;SDS011;6136;47.032;15.398;2023-05-07T10:34:56;2.70;;;2.50;;
12145;SDS011;6136;47.032;15.398;2023-05-07T10:37:28;3.20;;;2.50;;
12145;SDS011;6136;47.032;15.398;2023-05-07T10:39:57;5.60;;;3.38;;
12145;SDS011;6136;47.032;15.398;2023-05-07T10:42:29;2.45;;;2.25;;
12145;SDS011;6136;47.032;15.398;2023-05-07T10:45:11;2.90;;;2.70;;
12145;SDS011;6136;47.032;15.398;2023-05-07T10:54:21;3.17;;;2.90;;
12145;SDS011;6136;47.032;15.398;2023-05-07T11:00:43;2.80;;;2.60;;
12145;SDS011;6136;47.032;15.398;2023-05-07T11:03:19;2.60;;;2.50;;
12145;SDS011;6136;47.032;15.398;2023-05-07T11:06:10;4.38;;;3.45;;
12145;SDS011;6136;47.032;15.398;2023-05-07T11:08:53;2.78;;;2.58;;
12145;SDS011;6136;47.032;15.398;2023-05-07T11:11:49;2.92;;;2.72;;
12145;SDS011;6136;47.032;15.398;2023-05-07T11:14:44;3.25;;;3.05;;
12145;SDS011;6136;47.032;15.398;2023-05-07T11:17:25;3.30;;;2.90;;
12145;SDS011;6136;47.032;15.398;2023-05-07T11:20:02;2.72;;;2.53;;
12145;SDS011;6136;47.032;15.398;2023-05-07T11:22:45;2.47;;;2.28;;
12145;SDS011;6136;47.032;15.398;2023-05-07T11:25:21;3.22;;;2.50;;
12145;SDS011;6136;47.032;15.398;2023-05-07T11:28:11;2.90;;;2.70;;
12145;SDS011;6136;47.032;15.398;2023-05-07T11:30:45;2.80;;;2.60;;
12145;SDS011;6136;47.032;15.398;2023-05-07T11:33:18;2.90;;;2.70;;
12145;SDS011;6136;47.032;15.398;2023-05-07T11:35:49;3.53;;;2.50;;
12145;SDS011;6136;47.032;15.398;2023-05-07T11:38:20;2.92;;;2.72;;
12145;SDS011;6136;47.032;15.398;2023-05-07T11:40:49;2.90;;;2.70;;
12145;SDS011;6136;47.032;15.398;2023-05-07T11:43:17;2.72;;;2.53;;
12145;SDS011;6136;47.032;15.398;2023-05-07T11:45:46;4.40;;;2.90;;
12145;SDS011;6136;47.032;15.398;2023-05-07T11:48:15;2.42;;;2.30;;
12145;SDS011;6136;47.032;15.398;2023-05-07T11:50:52;3.05;;;2.63;;
12145;SDS011;6136;47.032;15.398;2023-05-07T11:53:23;2.90;;;2.70;;
12145;SDS011;6136;47.032;15.398;2023-05-07T11:55:52;2.63;;;2.42;;
12145;SDS011;6136;47.032;15.398;2023-05-07T11:58:21;3.38;;;2.53;;
12145;SDS011;6136;47.032;15.398;2023-05-07T12:00:50;2.60;;;2.40;;
12145;SDS011;6136;47.032;15.398;2023-05-07T12:03:18;2.38;;;2.17;;
12145;SDS011;6136;47.032;15.398;2023-05-07T12:05:47;2.50;;;2.30;;
12145;SDS011;6136;47.032;15.398;2023-05-07T12:08:17;2.70;;;2.50;;
12145;SDS011;6136;47.032;15.398;2023-05-07T12:10:47;2.70;;;2.50;;
12145;SDS011;6136;47.032;15.398;2023-05-07T12:13:17;14.45;;;3.83;;
12145;SDS011;6136;47.032;15.398;2023-05-07T12:15:46;28.33;;;4.93;;
12145;SDS011;6136;47.032;15.398;2023-05-07T12:18:18;2.83;;;2.63;;
12145;SDS011;6136;47.032;15.398;2023-05-07T12:20:47;4.30;;;2.47;;
12145;SDS011;6136;47.032;15.398;2023-05-07T12:23:18;2.58;;;2.38;;
12145;SDS011;6136;47.032;15.398;2023-05-07T12:25:46;2.72;;;2.53;;
12145;SDS011;6136;47.032;15.398;2023-05-07T12:28:15;2.90;;;2.70;;
12145;SDS011;6136;47.032;15.398;2023-05-07T12:30:44;2.85;;;2.65;;
12145;SDS011;6136;47.032;15.398;2023-05-07T12:33:16;3.15;;;2.88;;
12145;SDS011;6136;47.032;15.398;2023-05-07T12:35:45;3.65;;;2.45;;
12145;SDS011;6136;47.032;15.398;2023-05-07T12:38:16;3.08;;;2.78;;
12145;SDS011;6136;47.032;15.398;2023-05-07T12:40:46;3.35;;;3.08;;
12145;SDS011;6136;47.032;15.398;2023-05-07T12:43:18;3.30;;;2.42;;
12145;SDS011;6136;47.032;15.398;2023-05-07T12:45:46;2.88;;;2.67;;
12145;SDS011;6136;47.032;15.398;2023-05-07T12:48:15;3.13;;;2.80;;
12145;SDS011;6136;47.032;15.398;2023-05-07T12:50:44;2.70;;;2.50;;
12145;SDS011;6136;47.032;15.398;2023-05-07T12:53:12;2.92;;;2.72;;
12145;SDS011;6136;47.032;15.398;2023-05-07T12:55:43;2.85;;;2.65;;
12145;SDS011;6136;47.032;15.398;2023-05-07T12:58:16;2.83;;;2.63;;
12145;SDS011;6136;47.032;15.398;2023-05-07T13:00:44;2.70;;;2.50;;
12145;SDS011;6136;47.032;15.398;2023-05-07T13:03:22;3.10;;;2.90;;
12145;SDS011;6136;47.032;15.398;2023-05-07T13:05:51;6.03;;;2.67;;
12145;SDS011;6136;47.032;15.398;2023-05-07T13:08:25;3.03;;;2.72;;
12145;SDS011;6136;47.032;15.398;2023-05-07T13:10:56;2.88;;;2.67;;
12145;SDS011;6136;47.032;15.398;2023-05-07T13:13:25;2.95;;;2.75;;
12145;SDS011;6136;47.032;15.398;2023-05-07T13:15:57;3.60;;;3.30;;
12145;SDS011;6136;47.032;15.398;2023-05-07T13:18:27;3.13;;;2.83;;
12145;SDS011;6136;47.032;15.398;2023-05-07T13:20:57;2.60;;;2.40;;
12145;SDS011;6136;47.032;15.398;2023-05-07T13:23:26;3.47;;;2.35;;
12145;SDS011;6136;47.032;15.398;2023-05-07T13:25:56;4.57;;;1.90;;
12145;SDS011;6136;47.032;15.398;2023-05-07T13:28:26;5.47;;;2.67;;
12145;SDS011;6136;47.032;15.398;2023-05-07T13:30:54;3.30;;;1.90;;
12145;SDS011;6136;47.032;15.398;2023-05-07T13:33:22;5.07;;;2.35;;
12145;SDS011;6136;47.032;15.398;2023-05-07T13:35:51;3.03;;;2.00;;
12145;SDS011;6136;47.032;15.398;2023-05-07T13:38:19;4.10;;;2.00;;
12145;SDS011;6136;47.032;15.398;2023-05-07T13:40:50;3.85;;;1.88;;
12145;SDS011;6136;47.032;15.398;2023-05-07T13:43:19;5.57;;;2.10;;
12145;SDS011;6136;47.032;15.398;2023-05-07T13:45:47;6.45;;;2.20;;
12145;SDS011;6136;47.032;15.398;2023-05-07T13:48:16;8.25;;;2.70;;
12145;SDS011;6136;47.032;15.398;2023-05-07T13:50:44;6.28;;;3.03;;
12145;SDS011;6136;47.032;15.398;2023-05-07T13:53:12;5.65;;;2.00;;
12145;SDS011;6136;47.032;15.398;2023-05-07T13:55:42;5.25;;;2.13;;
12145;SDS011;6136;47.032;15.398;2023-05-07T13:58:10;5.35;;;2.20;;
12145;SDS011;6136;47.032;15.398;2023-05-07T14:00:40;3.55;;;2.22;;
12145;SDS011;6136;47.032;15.398;2023-05-07T14:03:08;2.53;;;1.77;;
12145;SDS011;6136;47.032;15.398;2023-05-07T14:05:37;3.70;;;2.45;;
12145;SDS011;6136;47.032;15.398;2023-05-07T14:08:05;8.70;;;4.78;;
12145;SDS011;6136;47.032;15.398;2023-05-07T14:10:34;7.30;;;4.93;;
12145;SDS011;6136;47.032;15.398;2023-05-07T14:13:02;8.25;;;5.25;;
12145;SDS011;6136;47.032;15.398;2023-05-07T14:15:30;6.45;;;5.85;;
12145;SDS011;6136;47.032;15.398;2023-05-07T14:18:00;8.88;;;6.43;;
12145;SDS011;6136;47.032;15.398;2023-05-07T14:20:28;8.48;;;6.57;;
12145;SDS011;6136;47.032;15.398;2023-05-07T14:22:57;9.75;;;6.82;;
12145;SDS011;6136;47.032;15.398;2023-05-07T14:25:25;6.63;;;5.53;;
12145;SDS011;6136;47.032;15.398;2023-05-07T14:27:53;7.63;;;5.68;;
12145;SDS011;6136;47.032;15.398;2023-05-07T14:30:22;6.10;;;5.43;;
12145;SDS011;6136;47.032;15.398;2023-05-07T14:32:51;8.38;;;6.07;;
12145;SDS011;6136;47.032;15.398;2023-05-07T14:35:20;9.25;;;5.57;;
12145;SDS011;6136;47.032;15.398;2023-05-07T14:37:48;6.97;;;6.18;;
12145;SDS011;6136;47.032;15.398;2023-05-07T14:40:16;8.13;;;6.32;;
12145;SDS011;6136;47.032;15.398;2023-05-07T14:42:45;8.80;;;6.95;;
12145;SDS011;6136;47.032;15.398;2023-05-07T14:45:13;7.30;;;6.40;;
12145;SDS011;6136;47.032;15.398;2023-05-07T14:47:41;9.88;;;7.10;;
12145;SDS011;6136;47.032;15.398;2023-05-07T14:50:09;10.70;;;6.93;;
12145;SDS011;6136;47.032;15.398;2023-05-07T14:52:39;12.68;;;7.55;;
12145;SDS011;6136;47.032;15.398;2023-05-07T14:55:07;8.18;;;7.35;;
12145;SDS011;6136;47.032;15.398;2023-05-07T14:57:36;10.55;;;7.28;;
12145;SDS011;6136;47.032;15.398;2023-05-07T15:00:05;8.38;;;7.20;;
12145;SDS011;6136;47.032;15.398;2023-05-07T15:02:34;9.83;;;6.97;;
12145;SDS011;6136;47.032;15.398;2023-05-07T15:05:03;9.23;;;7.18;;
12145;SDS011;6136;47.032;15.398;2023-05-07T15:07:32;9.27;;;7.30;;
12145;SDS011;6136;47.032;15.398;2023-05-07T15:10:02;8.68;;;7.57;;
12145;SDS011;6136;47.032;15.398;2023-05-07T15:12:30;9.98;;;7.40;;
12145;SDS011;6136;47.032;15.398;2023-05-07T15:14:58;8.73;;;7.03;;
12145;SDS011;6136;47.032;15.398;2023-05-07T15:17:27;9.00;;;7.70;;